Time;durP1;ratioP1;P1;durP2;ratioP2;P2;SDS_P1;SDS_P2;PMS_P1;PMS_P2;Temp;Humidity;BMP_temperature;BMP_pressure;BME280_temperature;BME280_humidity;BME280_pressure;Samples;Min_cycle;Max_cycle;Signal;HPM_P1;HPM_P2
2022/11/28 00:02:22;;;;;;;6.68;4.53;;;17.90;52.10;;;;;;5088424;28;45134;-69
2022/11/28 00:04:51;;;;;;;5.20;4.55;;;17.90;52.10;;;;;;5088696;28;45451;-68
2022/11/28 00:07:17;;;;;;;4.82;4.15;;;17.90;52.10;;;;;;5095797;27;46784;-68
2022/11/28 00:09:44;;;;;;;5.57;4.13;;;17.90;52.00;;;;;;5108697;27;45149;-68
2022/11/28 00:12:11;;;;;;;5.88;4.68;;;17.90;52.00;;;;;;5108692;27;45273;-68
2022/11/28 00:14:38;;;;;;;7.00;3.92;;;17.90;52.00;;;;;;5108923;27;45180;-68
2022/11/28 00:17:06;;;;;;;4.80;4.28;;;17.90;52.00;;;;;;5108363;27;45481;-68
2022/11/28 00:19:33;;;;;;;4.95;4.28;;;17.90;52.00;;;;;;5108591;27;45245;-69
2022/11/28 00:22:00;;;;;;;5.80;4.40;;;17.90;52.00;;;;;;5108620;27;45276;-68
2022/11/28 00:24:27;;;;;;;5.68;4.55;;;17.90;52.00;;;;;;5108728;27;45117;-68
2022/11/28 00:26:54;;;;;;;5.93;4.07;;;17.90;51.90;;;;;;5108550;27;46805;-69
2022/11/28 00:29:20;;;;;;;4.78;4.28;;;17.90;52.00;;;;;;5108495;27;45230;-69
2022/11/28 00:31:47;;;;;;;5.03;3.92;;;17.90;52.00;;;;;;5108460;27;45317;-68
2022/11/28 00:34:16;;;;;;;5.75;4.38;;;17.90;52.00;;;;;;5108503;27;45473;-69
2022/11/28 00:36:44;;;;;;;5.22;4.13;;;17.90;52.00;;;;;;5108127;27;47593;-68
2022/11/28 00:39:10;;;;;;;5.30;4.10;;;17.80;52.00;;;;;;5107364;27;45380;-68
2022/11/28 00:41:37;;;;;;;6.05;4.22;;;17.80;52.10;;;;;;5108283;27;45355;-68
2022/11/28 00:44:04;;;;;;;5.07;4.22;;;17.80;52.10;;;;;;5108595;27;45434;-68
2022/11/28 00:46:31;;;;;;;5.63;4.13;;;17.80;52.10;;;;;;5100285;27;47007;-68
2022/11/28 00:49:01;;;;;;;4.88;4.07;;;17.80;52.20;;;;;;5087570;28;45153;-68
2022/11/28 00:51:30;;;;;;;4.70;4.13;;;17.70;52.20;;;;;;5087224;28;45367;-69
2022/11/28 00:53:57;;;;;;;5.45;4.15;;;17.70;52.10;;;;;;5087817;28;45407;-68
2022/11/28 00:56:25;;;;;;;4.68;3.88;;;17.70;52.20;;;;;;5087281;28;46253;-69
2022/11/28 00:58:52;;;;;;;5.53;4.13;;;17.70;52.20;;;;;;5087434;28;45359;-68
2022/11/28 01:01:20;;;;;;;5.07;4.05;;;17.70;52.20;;;;;;5087640;28;45263;-69
2022/11/28 01:03:47;;;;;;;5.20;3.90;;;17.70;52.30;;;;;;5087679;28;45339;-68
2022/11/28 01:06:18;;;;;;;5.90;4.63;;;17.60;52.30;;;;;;5087138;28;45450;-68
2022/11/28 01:08:46;;;;;;;6.07;4.30;;;17.60;52.40;;;;;;5107139;27;45188;-68
2022/11/28 01:11:13;;;;;;;4.70;3.80;;;17.60;52.40;;;;;;5107938;27;45219;-68
2022/11/28 01:13:40;;;;;;;4.63;3.83;;;17.60;52.40;;;;;;5107959;27;45407;-68
2022/11/28 01:16:07;;;;;;;4.80;4.22;;;17.70;52.40;;;;;;5107523;27;47567;-69
2022/11/28 01:18:34;;;;;;;4.85;3.90;;;17.70;52.20;;;;;;5107656;27;45232;-68
2022/11/28 01:21:03;;;;;;;4.63;3.97;;;17.70;52.20;;;;;;5107664;27;45274;-68
2022/11/28 01:23:30;;;;;;;4.97;3.80;;;17.70;52.20;;;;;;5107848;27;45292;-68
2022/11/28 01:25:58;;;;;;;4.25;3.50;;;17.70;52.20;;;;;;5107545;27;46680;-68
2022/11/28 01:28:25;;;;;;;4.65;3.92;;;17.70;52.10;;;;;;5107399;27;45225;-69
2022/11/28 01:30:52;;;;;;;5.65;4.13;;;17.80;52.20;;;;;;5107579;27;45287;-68
2022/11/28 01:33:19;;;;;;;4.97;3.72;;;17.80;52.10;;;;;;5107680;27;45558;-68
2022/11/28 01:35:54;;;;;;;5.00;3.95;;;17.80;52.00;;;;;;5107186;27;47034;-68
2022/11/28 01:38:21;;;;;;;4.32;3.70;;;17.80;52.00;;;;;;5107203;27;45295;-68
2022/11/28 01:40:48;;;;;;;5.13;3.75;;;17.90;51.90;;;;;;5107441;27;45328;-68
2022/11/28 01:43:16;;;;;;;4.18;3.70;;;17.80;51.90;;;;;;5107644;27;45286;-68
2022/11/28 01:45:43;;;;;;;4.85;3.90;;;17.90;51.90;;;;;;5107039;27;45325;-68
2022/11/28 01:48:10;;;;;;;5.25;3.92;;;17.80;51.80;;;;;;5107272;27;45369;-68
2022/11/28 01:50:37;;;;;;;4.78;3.70;;;17.80;51.80;;;;;;5105861;27;45334;-68
2022/11/28 01:53:06;;;;;;;5.15;3.80;;;17.80;51.80;;;;;;5107264;27;45325;-68
2022/11/28 01:55:35;;;;;;;4.72;3.72;;;17.80;51.80;;;;;;5106805;27;45259;-68
2022/11/28 01:58:01;;;;;;;4.68;3.70;;;17.80;51.80;;;;;;5107005;27;45375;-69
2022/11/28 02:00:30;;;;;;;4.30;3.30;;;17.80;51.80;;;;;;5107096;27;45322;-69
2022/11/28 02:02:59;;;;;;;5.22;3.80;;;17.80;51.80;;;;;;5107227;27;45188;-68
2022/11/28 02:05:26;;;;;;;4.88;3.78;;;17.80;51.80;;;;;;5106746;27;46292;-68
2022/11/28 02:07:53;;;;;;;4.10;3.70;;;17.80;51.80;;;;;;5094282;27;45303;-68
2022/11/28 02:10:22;;;;;;;4.00;3.40;;;17.80;52.50;;;;;;5086530;28;45355;-68
2022/11/28 02:13:03;;;;;;;5.53;3.53;;;17.70;51.90;;;;;;5086600;28;45177;-68
2022/11/28 02:15:43;;;;;;;5.05;3.50;;;17.70;51.90;;;;;;5086213;28;45415;-68
2022/11/28 02:18:18;;;;;;;4.28;3.40;;;17.70;51.90;;;;;;5086241;28;45297;-68
2022/11/28 02:21:15;;;;;;;3.50;3.20;;;17.70;51.90;;;;;;5086386;28;45206;-68
2022/11/28 02:24:27;;;;;;;4.53;3.40;;;17.70;51.90;;;;;;5086516;28;45428;-68
2022/11/28 02:27:05;;;;;;;3.17;2.55;;;17.70;51.90;;;;;;5086002;28;45193;-68
2022/11/28 02:29:47;;;;;;;3.40;3.10;;;17.70;52.00;;;;;;5086165;28;45299;-68
2022/11/28 02:32:19;;;;;;;4.50;3.22;;;17.60;52.00;;;;;;5086266;28;45212;-68
2022/11/28 02:34:49;;;;;;;4.22;3.50;;;17.60;52.10;;;;;;5086281;28;45163;-68
2022/11/28 02:37:20;;;;;;;3.58;3.15;;;17.60;52.10;;;;;;5085784;28;45413;-69
2022/11/28 02:39:52;;;;;;;3.20;2.90;;;17.50;52.10;;;;;;5086063;28;45241;-68
2022/11/28 02:42:21;;;;;;;3.65;2.90;;;17.60;52.00;;;;;;5086120;28;45370;-68
2022/11/28 02:44:52;;;;;;;3.58;2.67;;;17.60;52.00;;;;;;5086173;28;45396;-68
2022/11/28 02:47:23;;;;;;;3.75;3.00;;;17.60;51.90;;;;;;5099966;27;46427;-68
2022/11/28 02:49:53;;;;;;;3.70;3.25;;;17.70;52.20;;;;;;5106324;27;45333;-68
2022/11/28 02:52:22;;;;;;;4.20;3.00;;;17.70;51.80;;;;;;5106076;27;45207;-68
2022/11/28 02:54:49;;;;;;;3.50;2.88;;;17.70;51.80;;;;;;5106465;27;45119;-68
2022/11/28 02:57:16;;;;;;;3.45;3.05;;;17.70;51.80;;;;;;5106017;27;46776;-68
2022/11/28 02:59:46;;;;;;;3.00;2.75;;;17.70;51.70;;;;;;5106156;27;45271;-68
2022/11/28 03:02:15;;;;;;;3.63;3.00;;;17.80;51.70;;;;;;5108772;27;45142;-68
2022/11/28 03:04:44;;;;;;;3.47;3.00;;;17.80;51.70;;;;;;5109932;27;45456;-68
2022/11/28 03:07:16;;;;;;;3.08;2.60;;;17.80;51.60;;;;;;5102874;27;46472;-68
2022/11/28 03:09:56;;;;;;;3.42;2.65;;;17.80;51.60;;;;;;5089167;28;45288;-68
2022/11/28 03:12:26;;;;;;;3.92;3.10;;;17.80;51.50;;;;;;5089325;28;45225;-68
2022/11/28 03:14:54;;;;;;;3.45;2.67;;;17.80;51.50;;;;;;5089285;28;45295;-68
2022/11/28 03:17:31;;;;;;;3.80;2.88;;;17.80;51.40;;;;;;5088903;28;46402;-68
2022/11/28 03:20:07;;;;;;;4.32;2.75;;;17.80;51.50;;;;;;5089130;28;45180;-68
2022/11/28 03:22:38;;;;;;;3.05;2.72;;;17.80;52.00;;;;;;5089101;28;45201;-68
2022/11/28 03:25:08;;;;;;;2.97;2.58;;;17.80;51.40;;;;;;5089461;28;45289;-68
2022/11/28 03:27:37;;;;;;;3.13;2.78;;;17.80;51.40;;;;;;5088824;28;46975;-68
2022/11/28 03:30:06;;;;;;;3.78;2.70;;;17.80;51.40;;;;;;5088855;28;45415;-68
2022/11/28 03:32:34;;;;;;;2.92;2.63;;;17.80;51.40;;;;;;5088934;28;45259;-68
2022/11/28 03:35:07;;;;;;;3.33;2.83;;;17.70;51.30;;;;;;5088994;28;45470;-68
2022/11/28 03:37:35;;;;;;;3.03;2.58;;;17.70;51.40;;;;;;5088637;28;46363;-68
2022/11/28 03:40:04;;;;;;;3.13;2.78;;;17.70;51.40;;;;;;5088677;28;45290;-68
2022/11/28 03:42:34;;;;;;;2.47;2.28;;;17.70;51.40;;;;;;5088922;28;45305;-68
2022/11/28 03:45:04;;;;;;;3.40;2.92;;;17.70;51.40;;;;;;5088869;28;45283;-68
2022/11/28 03:47:35;;;;;;;2.85;2.38;;;17.70;51.40;;;;;;5104350;27;46352;-68
2022/11/28 03:50:06;;;;;;;3.15;2.33;;;17.70;51.50;;;;;;5108840;27;45387;-70
2022/11/28 03:52:34;;;;;;;2.88;2.47;;;17.70;51.50;;;;;;5109048;27;45200;-68
2022/11/28 03:55:02;;;;;;;2.33;2.13;;;17.60;51.50;;;;;;5109252;27;45333;-69
2022/11/28 03:57:31;;;;;;;2.60;2.40;;;17.60;51.50;;;;;;5108912;27;46759;-68
2022/11/28 03:59:58;;;;;;;3.00;2.70;;;17.60;51.50;;;;;;5108901;27;45284;-68
2022/11/28 04:02:29;;;;;;;3.03;2.72;;;17.60;51.60;;;;;;5108994;27;45527;-68
2022/11/28 04:05:00;;;;;;;2.78;2.40;;;17.50;51.50;;;;;;5109133;27;45327;-68
2022/11/28 04:07:31;;;;;;;2.80;2.50;;;17.60;51.50;;;;;;5099729;27;45513;-68
2022/11/28 04:10:02;;;;;;;2.50;2.20;;;17.60;51.50;;;;;;5088212;28;45265;-68
2022/11/28 04:12:34;;;;;;;2.55;2.35;;;17.60;51.40;;;;;;5087317;27;45334;-68
2022/11/28 04:15:03;;;;;;;2.42;2.15;;;17.70;51.30;;;;;;5088378;28;45307;-68
2022/11/28 04:17:32;;;;;;;2.33;2.10;;;17.70;51.30;;;;;;5088056;28;46715;-68
2022/11/28 04:20:01;;;;;;;2.38;2.10;;;17.70;51.20;;;;;;5088072;28;45146;-68
2022/11/28 04:22:31;;;;;;;2.50;2.10;;;17.70;51.20;;;;;;5088222;28;45247;-68
2022/11/28 04:24:59;;;;;;;3.03;2.20;;;17.70;51.10;;;;;;5088260;28;45415;-68
2022/11/28 04:27:28;;;;;;;2.25;2.08;;;17.80;51.20;;;;;;5087807;28;45459;-69
2022/11/28 04:29:57;;;;;;;2.63;2.40;;;17.80;51.10;;;;;;5087889;28;45371;-69
2022/11/28 04:32:25;;;;;;;2.75;2.13;;;17.80;51.00;;;;;;5088116;28;45285;-70
2022/11/28 04:34:53;;;;;;;2.20;2.00;;;17.80;51.00;;;;;;5087955;28;45466;-68
2022/11/28 04:37:20;;;;;;;2.35;2.15;;;17.80;51.00;;;;;;5087679;28;45479;-68
2022/11/28 04:39:48;;;;;;;2.75;2.30;;;17.80;51.00;;;;;;5087750;28;45256;-68
2022/11/28 04:42:16;;;;;;;1.88;1.67;;;17.80;50.90;;;;;;5088134;28;45469;-68
2022/11/28 04:44:45;;;;;;;2.33;1.85;;;17.80;50.90;;;;;;5087884;28;45305;-68
2022/11/28 04:47:12;;;;;;;2.30;2.10;;;17.80;50.80;;;;;;5100625;27;46563;-68
2022/11/28 04:49:39;;;;;;;2.38;2.13;;;17.80;50.80;;;;;;5108012;27;45252;-68
2022/11/28 04:52:07;;;;;;;2.22;2.03;;;17.80;50.90;;;;;;5107751;27;45314;-68
2022/11/28 04:54:38;;;;;;;2.20;2.00;;;17.80;50.80;;;;;;5108261;27;45513;-68
2022/11/28 04:57:10;;;;;;;2.53;1.88;;;17.80;50.90;;;;;;5107853;27;46449;-68
2022/11/28 04:59:37;;;;;;;2.45;1.95;;;17.70;50.90;;;;;;5107923;27;45318;-68
2022/11/28 05:02:04;;;;;;;2.28;2.10;;;17.70;50.80;;;;;;5108032;27;45280;-68
2022/11/28 05:04:31;;;;;;;1.83;1.70;;;17.70;50.90;;;;;;5107991;27;45298;-68
2022/11/28 05:07:02;;;;;;;1.98;1.65;;;17.70;50.90;;;;;;5102846;27;46865;-69
2022/11/28 05:09:29;;;;;;;2.03;1.92;;;17.70;50.90;;;;;;5087403;28;45170;-68
2022/11/28 05:11:56;;;;;;;1.67;1.58;;;17.70;50.90;;;;;;5087568;28;45387;-69
2022/11/28 05:14:24;;;;;;;1.88;1.77;;;17.70;51.00;;;;;;5087369;28;45318;-68
2022/11/28 05:16:51;;;;;;;2.85;2.00;;;17.60;50.90;;;;;;5086995;28;45229;-68
2022/11/28 05:19:17;;;;;;;2.50;1.92;;;17.60;51.00;;;;;;5087026;28;45179;-68
2022/11/28 05:21:44;;;;;;;1.83;1.70;;;17.60;51.00;;;;;;5087147;28;45218;-68
2022/11/28 05:24:11;;;;;;;2.20;2.00;;;17.60;51.00;;;;;;5086893;27;45314;-68
2022/11/28 05:26:38;;;;;;;2.10;1.90;;;17.60;51.10;;;;;;5086830;28;46201;-68
2022/11/28 05:29:05;;;;;;;1.88;1.60;;;17.50;51.10;;;;;;5087010;28;45324;-68
2022/11/28 05:31:34;;;;;;;1.70;1.60;;;17.50;51.20;;;;;;5087039;28;45266;-69
2022/11/28 05:34:01;;;;;;;1.70;1.60;;;17.50;51.10;;;;;;5087271;28;44746;-68
2022/11/28 05:36:28;;;;;;;1.75;1.65;;;17.50;51.10;;;;;;5086707;28;45382;-68
2022/11/28 05:38:54;;;;;;;1.60;1.50;;;17.60;51.00;;;;;;5086659;28;45296;-70
2022/11/28 05:41:22;;;;;;;1.95;1.75;;;17.60;51.00;;;;;;5086905;28;45310;-68
2022/11/28 05:43:49;;;;;;;1.70;1.60;;;17.60;50.90;;;;;;5087088;28;45228;-68
2022/11/28 05:46:16;;;;;;;1.67;1.58;;;17.60;50.90;;;;;;5086576;28;46689;-68
2022/11/28 05:48:44;;;;;;;2.00;1.80;;;17.60;50.90;;;;;;5086685;28;45329;-68
2022/11/28 05:51:11;;;;;;;2.30;2.10;;;17.70;50.90;;;;;;5086305;28;45268;-68
2022/11/28 05:53:38;;;;;;;1.83;1.70;;;17.70;50.90;;;;;;5086965;28;45396;-68
2022/11/28 05:56:08;;;;;;;1.92;1.63;;;17.70;50.80;;;;;;5086368;28;45297;-68
2022/11/28 05:58:35;;;;;;;1.98;1.77;;;17.70;50.80;;;;;;5086465;28;45305;-68
2022/11/28 06:01:09;;;;;;;1.73;1.60;;;17.70;50.70;;;;;;5086581;28;45251;-68
2022/11/28 06:03:36;;;;;;;1.70;1.60;;;17.80;50.80;;;;;;5086789;28;45291;-68
2022/11/28 06:06:05;;;;;;;2.30;1.85;;;17.80;50.70;;;;;;5086158;28;46423;-68
2022/11/28 06:08:32;;;;;;;2.20;1.42;;;17.80;50.70;;;;;;5103944;27;45301;-68
2022/11/28 06:10:59;;;;;;;1.80;1.70;;;17.80;50.60;;;;;;5107198;27;45453;-68
2022/11/28 06:13:26;;;;;;;1.60;1.50;;;17.80;50.60;;;;;;5107047;27;45508;-69
2022/11/28 06:15:56;;;;;;;2.72;1.63;;;17.80;50.60;;;;;;5106706;27;46636;-68
2022/11/28 06:18:23;;;;;;;1.77;1.50;;;17.80;50.60;;;;;;5106815;27;45361;-68
2022/11/28 06:20:50;;;;;;;2.35;1.88;;;17.80;50.60;;;;;;5106849;27;45410;-68
2022/11/28 06:23:18;;;;;;;1.70;1.60;;;17.80;50.60;;;;;;5106898;27;45259;-68
2022/11/28 06:25:45;;;;;;;1.70;1.60;;;17.70;50.60;;;;;;5106572;27;45213;-68
2022/11/28 06:28:11;;;;;;;1.95;1.67;;;17.70;50.70;;;;;;5106553;27;45337;-68
2022/11/28 06:30:39;;;;;;;1.67;1.58;;;17.70;50.70;;;;;;5106666;27;45299;-68
2022/11/28 06:33:05;;;;;;;2.13;1.40;;;17.70;50.70;;;;;;5106678;27;45499;-68
2022/11/28 06:35:32;;;;;;;1.52;1.42;;;17.70;50.70;;;;;;5106287;27;46977;-68
2022/11/28 06:38:00;;;;;;;2.22;1.70;;;17.70;50.80;;;;;;5110129;27;45261;-68
2022/11/28 06:40:28;;;;;;;1.83;1.38;;;17.70;50.80;;;;;;5110270;27;45256;-68
2022/11/28 06:42:56;;;;;;;1.55;1.45;;;17.70;50.80;;;;;;5110370;27;45294;-69
2022/11/28 06:45:22;;;;;;;1.50;1.40;;;17.70;50.90;;;;;;5109895;27;46521;-68
2022/11/28 06:47:49;;;;;;;2.00;1.73;;;17.60;50.90;;;;;;5091452;27;45357;-68
2022/11/28 06:50:16;;;;;;;1.83;1.60;;;17.60;51.00;;;;;;5089459;28;45182;-68
2022/11/28 06:52:43;;;;;;;1.77;1.60;;;17.60;51.00;;;;;;5089623;28;45395;-68
2022/11/28 06:55:10;;;;;;;1.90;1.42;;;17.60;51.00;;;;;;5089194;28;46399;-68
2022/11/28 06:57:38;;;;;;;1.60;1.50;;;17.60;51.00;;;;;;5089375;28;45193;-68
2022/11/28 07:00:06;;;;;;;1.75;1.60;;;17.60;51.10;;;;;;5089241;28;45268;-68
2022/11/28 07:02:33;;;;;;;1.70;1.60;;;17.60;51.10;;;;;;5089522;28;45555;-68
2022/11/28 07:05:00;;;;;;;2.08;1.80;;;17.60;51.00;;;;;;5089046;28;46672;-68
2022/11/28 07:07:27;;;;;;;2.30;1.83;;;17.60;51.00;;;;;;5097871;27;45327;-68
2022/11/28 07:09:54;;;;;;;2.05;1.58;;;17.70;51.60;;;;;;5109883;27;45185;-68
2022/11/28 07:12:21;;;;;;;2.03;1.80;;;17.70;50.90;;;;;;5109975;27;45269;-68
2022/11/28 07:14:49;;;;;;;2.13;1.70;;;17.70;50.90;;;;;;5109437;27;45442;-68
2022/11/28 07:17:16;;;;;;;2.30;2.10;;;17.70;51.00;;;;;;5109525;27;45393;-68
2022/11/28 07:19:43;;;;;;;1.98;1.77;;;17.70;50.90;;;;;;5109646;27;45225;-68
2022/11/28 07:22:10;;;;;;;2.22;1.95;;;17.80;50.80;;;;;;5109777;27;45186;-68
2022/11/28 07:24:37;;;;;;;2.67;1.90;;;17.80;50.80;;;;;;5109310;27;45736;-69
2022/11/28 07:27:04;;;;;;;2.10;1.85;;;17.80;50.80;;;;;;5109421;27;45282;-68
2022/11/28 07:29:35;;;;;;;2.40;2.20;;;17.80;50.80;;;;;;5109384;27;45385;-68
2022/11/28 07:32:04;;;;;;;2.20;2.00;;;17.80;50.80;;;;;;5109571;27;45185;-68
2022/11/28 07:34:32;;;;;;;3.22;2.20;;;17.80;50.80;;;;;;5109034;27;46141;-69
2022/11/28 07:36:59;;;;;;;1.90;1.80;;;17.80;50.80;;;;;;5109180;27;45222;-68
2022/11/28 07:39:26;;;;;;;2.50;2.13;;;17.80;50.80;;;;;;5109210;27;45242;-68
2022/11/28 07:41:53;;;;;;;2.97;2.30;;;17.80;50.80;;;;;;5109410;27;45272;-68
2022/11/28 07:44:19;;;;;;;3.15;2.20;;;17.80;50.80;;;;;;5108926;27;46331;-68
2022/11/28 07:46:46;;;;;;;2.55;2.20;;;17.80;50.80;;;;;;5108850;27;45335;-68
2022/11/28 07:49:15;;;;;;;2.55;2.35;;;17.80;50.80;;;;;;5109101;27;45282;-68
2022/11/28 07:51:42;;;;;;;2.95;2.30;;;17.80;50.70;;;;;;5109120;27;45538;-68
2022/11/28 07:54:08;;;;;;;3.45;2.45;;;17.80;50.80;;;;;;5108797;27;46728;-68
2022/11/28 07:56:36;;;;;;;2.80;2.28;;;17.80;50.80;;;;;;5108854;27;45279;-68
2022/11/28 07:59:03;;;;;;;3.05;2.70;;;17.80;50.90;;;;;;5108910;27;45178;-68
2022/11/28 08:01:31;;;;;;;3.08;2.42;;;17.80;50.90;;;;;;5109053;27;45451;-68
2022/11/28 08:03:58;;;;;;;3.47;2.67;;;17.70;50.90;;;;;;5108658;27;46466;-68
2022/11/28 08:06:27;;;;;;;3.13;2.83;;;17.70;50.90;;;;;;5108524;27;45270;-69
2022/11/28 08:08:55;;;;;;;4.03;2.92;;;17.70;51.00;;;;;;5088205;28;45249;-68
2022/11/28 08:11:24;;;;;;;2.58;2.38;;;17.70;51.00;;;;;;5088468;28;45463;-68
2022/11/28 08:13:51;;;;;;;3.25;2.60;;;17.70;51.00;;;;;;5087872;28;46794;-68
2022/11/28 08:16:19;;;;;;;3.97;2.70;;;17.70;51.10;;;;;;5087895;28;45277;-68
2022/11/28 08:18:46;;;;;;;3.10;2.80;;;17.70;51.10;;;;;;5088012;28;45331;-68
2022/11/28 08:21:15;;;;;;;3.45;2.80;;;17.70;51.10;;;;;;5088240;28;45303;-68
2022/11/28 08:23:44;;;;;;;3.63;3.20;;;17.70;51.20;;;;;;5087853;28;45327;-68
2022/11/28 08:26:12;;;;;;;3.00;2.55;;;17.70;51.80;;;;;;5087709;28;45254;-68
2022/11/28 08:28:39;;;;;;;4.07;2.97;;;17.70;51.30;;;;;;5087921;28;45319;-68
2022/11/28 08:31:09;;;;;;;3.33;2.90;;;17.70;51.30;;;;;;5088122;28;45457;-68
2022/11/28 08:33:36;;;;;;;6.20;2.90;;;17.70;51.30;;;;;;5087817;28;45277;-68
2022/11/28 08:36:03;;;;;;;3.85;3.05;;;17.70;51.30;;;;;;5087611;28;45301;-68
2022/11/28 08:38:31;;;;;;;4.05;3.20;;;17.70;51.20;;;;;;5087729;28;45378;-68
2022/11/28 08:41:02;;;;;;;6.25;3.30;;;17.80;51.30;;;;;;5088022;28;45472;-68
2022/11/28 08:43:29;;;;;;;3.35;2.83;;;17.80;51.30;;;;;;5087503;28;46646;-68
2022/11/28 08:45:56;;;;;;;6.28;3.35;;;17.80;51.30;;;;;;5089760;27;45399;-68
2022/11/28 08:48:22;;;;;;;6.28;3.67;;;17.80;51.20;;;;;;5108177;27;45554;-68
2022/11/28 08:50:49;;;;;;;3.55;2.80;;;17.90;51.20;;;;;;5108006;27;45107;-68
2022/11/28 08:53:16;;;;;;;3.88;3.42;;;17.90;51.20;;;;;;5107739;27;46420;-69
2022/11/28 08:55:43;;;;;;;5.28;3.40;;;17.90;51.20;;;;;;5107914;27;45331;-68
2022/11/28 08:58:11;;;;;;;5.45;3.78;;;17.90;51.20;;;;;;5107979;27;45239;-68
2022/11/28 09:00:38;;;;;;;4.57;3.55;;;17.90;51.20;;;;;;5107549;27;45340;-68
2022/11/28 09:03:06;;;;;;;4.72;3.40;;;17.90;51.20;;;;;;5107693;27;45397;-68
2022/11/28 09:05:33;;;;;;;4.05;3.33;;;18.00;51.20;;;;;;5107831;27;45229;-69
2022/11/28 09:08:00;;;;;;;3.40;3.10;;;18.00;51.20;;;;;;5094330;27;45352;-69
2022/11/28 09:10:26;;;;;;;5.85;3.50;;;18.00;51.20;;;;;;5087455;28;45315;-70
2022/11/28 09:12:53;;;;;;;4.97;3.63;;;18.00;51.20;;;;;;5087172;28;45246;-68
2022/11/28 09:15:21;;;;;;;6.35;3.67;;;18.00;51.20;;;;;;5087038;28;45165;-69
2022/11/28 09:17:48;;;;;;;3.95;3.25;;;18.00;51.80;;;;;;5087198;28;45318;-69
2022/11/28 09:20:16;;;;;;;5.70;3.40;;;18.00;51.20;;;;;;5087163;28;45404;-68
2022/11/28 09:22:43;;;;;;;4.68;3.20;;;17.90;51.20;;;;;;5087037;28;46666;-68
2022/11/28 09:25:10;;;;;;;4.05;3.13;;;17.90;51.90;;;;;;5086882;28;45319;-68
2022/11/28 09:27:37;;;;;;;4.57;3.30;;;18.00;51.30;;;;;;5087110;28;45297;-69
2022/11/28 09:30:05;;;;;;;3.13;2.75;;;17.90;51.90;;;;;;5087112;28;45315;-69
2022/11/28 09:32:33;;;;;;;4.03;3.28;;;17.90;51.30;;;;;;5086746;28;47018;-68
2022/11/28 09:35:00;;;;;;;5.93;3.25;;;17.90;51.30;;;;;;5086769;28;45343;-69
2022/11/28 09:37:27;;;;;;;3.78;3.28;;;17.90;52.00;;;;;;5086995;28;45189;-70
2022/11/28 09:39:54;;;;;;;3.47;3.00;;;17.90;52.00;;;;;;5086963;28;45431;-68
2022/11/28 09:42:22;;;;;;;4.47;3.15;;;17.90;51.50;;;;;;5086548;28;46872;-69
2022/11/28 09:44:50;;;;;;;3.60;2.90;;;17.90;51.50;;;;;;5086222;28;45252;-69
2022/11/28 09:47:20;;;;;;;5.22;3.10;;;17.90;51.50;;;;;;5100604;27;45187;-68
2022/11/28 09:49:49;;;;;;;3.75;2.90;;;17.90;51.50;;;;;;5107397;27;45256;-69
2022/11/28 09:52:24;;;;;;;4.75;3.25;;;17.90;51.60;;;;;;5106585;27;46665;-68
2022/11/28 09:54:52;;;;;;;3.60;2.90;;;17.90;51.60;;;;;;5106962;27;45247;-69
2022/11/28 09:57:24;;;;;;;4.75;3.10;;;17.80;51.60;;;;;;5107102;27;45322;-68
2022/11/28 09:59:51;;;;;;;4.97;2.85;;;17.90;51.70;;;;;;5107169;27;45382;-68
2022/11/28 10:02:24;;;;;;;4.43;3.00;;;17.80;51.70;;;;;;5106829;27;45170;-68
2022/11/28 10:04:58;;;;;;;3.78;3.25;;;17.80;51.70;;;;;;5106774;27;45320;-69
2022/11/28 10:07:28;;;;;;;3.85;3.13;;;17.80;51.70;;;;;;5098512;27;45398;-69
2022/11/28 10:09:57;;;;;;;4.15;2.70;;;17.80;51.70;;;;;;5086239;28;45522;-69
2022/11/28 10:12:32;;;;;;;3.72;2.70;;;17.90;51.80;;;;;;5085338;28;46595;-69
2022/11/28 10:15:07;;;;;;;3.47;2.85;;;17.90;51.80;;;;;;5086119;28;45458;-69
2022/11/28 10:17:39;;;;;;;4.95;3.03;;;17.90;51.70;;;;;;5086257;28;45248;-69
2022/11/28 10:20:11;;;;;;;2.90;2.55;;;17.90;51.70;;;;;;5086260;28;45454;-68
2022/11/28 10:22:39;;;;;;;4.53;2.75;;;18.00;51.70;;;;;;5086058;28;45224;-68
2022/11/28 10:25:10;;;;;;;4.00;2.72;;;18.00;51.60;;;;;;5085936;28;45391;-68
2022/11/28 10:27:37;;;;;;;5.07;3.00;;;18.00;51.60;;;;;;5086188;28;45258;-68
2022/11/28 10:30:05;;;;;;;5.20;2.67;;;18.00;51.50;;;;;;5086227;28;45333;-68
2022/11/28 10:32:34;;;;;;;2.80;2.38;;;18.00;51.50;;;;;;5085847;28;45618;-68
2022/11/28 10:35:04;;;;;;;3.03;2.60;;;18.10;51.60;;;;;;5085862;28;45277;-68
2022/11/28 10:37:32;;;;;;;9.80;2.60;;;18.10;51.50;;;;;;5086125;28;45259;-68
2022/11/28 10:40:17;;;;;;;3.40;2.30;;;18.10;51.50;;;;;;5086143;28;45479;-68
2022/11/28 10:42:46;;;;;;;2.88;2.60;;;18.10;51.50;;;;;;5085719;28;45518;-68
2022/11/28 10:45:17;;;;;;;2.63;2.40;;;18.10;51.50;;;;;;5085578;28;45254;-68
2022/11/28 10:48:01;;;;;;;3.25;2.80;;;18.10;51.50;;;;;;5103493;27;45198;-69
2022/11/28 10:50:32;;;;;;;3.95;2.50;;;18.10;51.50;;;;;;5106322;27;45413;-69
2022/11/28 10:53:02;;;;;;;3.85;2.70;;;18.10;51.50;;;;;;5105969;27;45730;-69
2022/11/28 10:55:35;;;;;;;2.47;2.17;;;18.10;51.60;;;;;;5106162;27;45446;-69
2022/11/28 10:58:05;;;;;;;2.95;2.60;;;18.10;51.60;;;;;;5106305;27;45316;-69
2022/11/28 11:00:32;;;;;;;3.75;2.33;;;18.10;51.60;;;;;;5106305;27;45234;-68
2022/11/28 11:03:01;;;;;;;4.70;2.85;;;18.10;51.60;;;;;;5106014;27;45514;-68
2022/11/28 11:05:29;;;;;;;2.58;2.20;;;18.10;51.60;;;;;;5106000;27;45351;-69
2022/11/28 11:07:57;;;;;;;2.42;2.13;;;18.10;51.70;;;;;;5093314;27;45336;-68
2022/11/28 11:10:26;;;;;;;3.08;2.78;;;18.10;51.70;;;;;;5085794;28;45197;-68
2022/11/28 11:12:53;;;;;;;3.22;2.17;;;18.10;51.70;;;;;;5085364;28;47016;-68
2022/11/28 11:15:23;;;;;;;3.55;2.25;;;18.10;51.80;;;;;;5085288;28;45256;-68
2022/11/28 11:17:50;;;;;;;2.50;2.00;;;18.10;51.80;;;;;;5085566;28;45313;-68
2022/11/28 11:20:36;;;;;;;2.35;2.15;;;18.00;51.70;;;;;;5085527;28;45280;-68
2022/11/28 11:23:12;;;;;;;3.42;2.10;;;18.00;51.80;;;;;;5087243;27;46410;-68
2022/11/28 11:25:45;;;;;;;3.83;1.90;;;18.00;51.90;;;;;;5088893;28;45349;-68
2022/11/28 11:28:26;;;;;;;4.10;2.22;;;18.00;51.90;;;;;;5088926;28;45300;-68
2022/11/28 11:30:58;;;;;;;2.83;2.38;;;18.00;52.00;;;;;;5089076;28;45181;-69
2022/11/28 11:33:25;;;;;;;3.25;2.15;;;18.00;52.00;;;;;;5088833;28;46375;-68
2022/11/28 11:35:52;;;;;;;2.08;1.95;;;18.00;52.10;;;;;;5088606;28;45254;-68
2022/11/28 11:38:26;;;;;;;2.65;1.83;;;18.00;52.10;;;;;;5088830;28;45186;-68
2022/11/28 11:40:55;;;;;;;4.63;2.05;;;18.00;52.20;;;;;;5088905;28;45173;-68
2022/11/28 11:43:27;;;;;;;2.40;2.10;;;17.90;52.10;;;;;;5088371;28;45358;-68
2022/11/28 11:46:08;;;;;;;2.42;2.10;;;17.90;52.20;;;;;;5090482;27;45207;-68
2022/11/28 11:48:37;;;;;;;2.88;2.08;;;17.90;52.20;;;;;;5109260;27;45414;-68
2022/11/28 11:51:04;;;;;;;2.25;1.80;;;17.90;52.30;;;;;;5109093;27;45485;-68
2022/11/28 11:53:31;;;;;;;2.95;2.28;;;17.90;52.90;;;;;;5108942;27;45287;-68
2022/11/28 11:56:01;;;;;;;3.53;1.98;;;17.90;52.30;;;;;;5108659;27;45389;-70
2022/11/28 11:58:30;;;;;;;2.10;1.92;;;18.00;52.30;;;;;;5108958;27;45176;-70
2022/11/28 12:00:57;;;;;;;3.38;2.05;;;18.00;52.30;;;;;;5108961;27;45274;-68
2022/11/28 12:03:25;;;;;;;2.20;1.80;;;18.00;52.30;;;;;;5108649;27;45541;-68
2022/11/28 12:05:53;;;;;;;3.22;2.10;;;18.00;52.20;;;;;;5108666;27;45259;-68
2022/11/28 12:08:26;;;;;;;3.28;2.08;;;18.10;52.20;;;;;;5092551;27;45521;-68
2022/11/28 12:10:56;;;;;;;1.90;1.80;;;18.10;52.20;;;;;;5088403;28;45418;-68
2022/11/28 12:13:26;;;;;;;4.38;2.00;;;18.10;52.10;;;;;;5088050;28;46997;-68
2022/11/28 12:15:58;;;;;;;2.47;2.00;;;18.20;52.10;;;;;;5088041;28;45356;-68
2022/11/28 12:18:27;;;;;;;2.20;1.75;;;18.20;52.10;;;;;;5088294;28;45284;-68
2022/11/28 12:21:01;;;;;;;1.70;1.60;;;18.20;52.10;;;;;;5088229;28;45455;-68
2022/11/28 12:23:52;;;;;;;2.40;1.70;;;18.20;52.10;;;;;;5087893;28;46487;-68
2022/11/28 12:26:20;;;;;;;2.92;2.00;;;18.20;52.60;;;;;;5085247;28;45279;-68
2022/11/28 12:28:57;;;;;;;2.28;1.88;;;18.20;52.00;;;;;;5088110;28;45189;-68
2022/11/28 12:31:28;;;;;;;2.03;1.50;;;18.20;52.10;;;;;;5088119;28;45396;-68
2022/11/28 12:33:58;;;;;;;1.90;1.70;;;18.20;52.10;;;;;;5086743;27;46739;-68
2022/11/28 12:36:28;;;;;;;5.00;1.80;;;18.20;52.10;;;;;;5087659;28;45339;-68
2022/11/28 12:38:59;;;;;;;2.00;1.80;;;18.20;52.10;;;;;;5087913;28;45239;-68
2022/11/28 12:41:57;;;;;;;1.90;1.70;;;18.20;52.20;;;;;;5087927;28;45473;-68
2022/11/28 12:44:29;;;;;;;1.88;1.70;;;18.20;52.20;;;;;;5087558;28;47268;-69
2022/11/28 12:47:00;;;;;;;1.70;1.60;;;18.20;52.20;;;;;;5098519;27;45241;-68
2022/11/28 12:49:30;;;;;;;2.97;1.73;;;18.20;52.20;;;;;;5108190;27;45273;-69
2022/11/28 12:52:02;;;;;;;2.38;1.80;;;18.20;52.30;;;;;;5107890;27;45296;-69
2022/11/28 12:54:49;;;;;;;1.60;1.50;;;18.20;52.30;;;;;;5107743;27;46746;-70
2022/11/28 12:57:18;;;;;;;2.42;1.63;;;18.20;52.30;;;;;;5107882;27;45297;-69
2022/11/28 12:59:49;;;;;;;1.95;1.60;;;18.20;52.40;;;;;;5107931;27;45291;-69